Time;durP1;ratioP1;P1;durP2;ratioP2;P2;SDS_P1;SDS_P2;PMS_P1;PMS_P2;Temp;Humidity;BMP_temperature;BMP_pressure;BME280_temperature;BME280_humidity;BME280_pressure;Samples;Min_cycle;Max_cycle;Signal;HPM_P1;HPM_P2
2023/08/17 00:02:09;;;;;;;19.40;11.48;;;26.10;99.90;;;;;;5062198;28;20247;-72
2023/08/17 00:04:58;;;;;;;13.43;11.40;;;26.20;99.90;;;;;;5061115;28;20236;-72
2023/08/17 00:07:47;;;;;;;15.55;11.90;;;26.10;99.90;;;;;;5064984;28;20457;-72
2023/08/17 00:10:41;;;;;;;13.50;11.23;;;26.20;99.90;;;;;;5048390;28;20687;-72
2023/08/17 00:13:29;;;;;;;17.75;11.68;;;26.20;99.90;;;;;;5047852;28;20231;-71
2023/08/17 00:16:19;;;;;;;13.43;11.77;;;26.20;99.90;;;;;;5068823;28;20339;-71
2023/08/17 00:19:08;;;;;;;13.52;11.85;;;26.20;99.90;;;;;;5074212;28;20310;-71
2023/08/17 00:21:57;;;;;;;16.48;11.48;;;26.20;99.90;;;;;;5093489;28;20219;-71
2023/08/17 00:24:46;;;;;;;14.30;11.63;;;26.10;99.90;;;;;;5087520;28;20234;-71
2023/08/17 00:27:36;;;;;;;15.15;12.05;;;26.20;99.90;;;;;;5083726;28;20230;-72
2023/08/17 00:30:25;;;;;;;19.67;12.77;;;26.20;99.90;;;;;;5075998;28;20754;-73
2023/08/17 00:33:14;;;;;;;17.70;12.45;;;26.10;99.90;;;;;;5067014;28;20219;-72
2023/08/17 00:36:03;;;;;;;15.20;11.32;;;26.10;99.90;;;;;;5068018;28;20345;-72
2023/08/17 00:38:57;;;;;;;16.65;12.18;;;26.10;99.90;;;;;;5081521;28;20275;-73
2023/08/17 00:41:46;;;;;;;18.98;11.90;;;26.00;99.90;;;;;;5073304;28;20263;-72
2023/08/17 00:44:36;;;;;;;14.68;11.68;;;26.00;99.90;;;;;;5082574;28;20294;-73
2023/08/17 00:47:26;;;;;;;16.58;12.23;;;26.10;99.90;;;;;;5082123;28;20219;-71
2023/08/17 00:50:15;;;;;;;19.85;11.95;;;26.10;99.90;;;;;;5063857;28;20323;-72
2023/08/17 00:53:05;;;;;;;13.50;12.10;;;26.00;99.90;;;;;;5069678;28;20216;-72
2023/08/17 00:55:55;;;;;;;13.35;11.98;;;26.00;99.90;;;;;;5077370;28;20448;-72
2023/08/17 00:58:44;;;;;;;13.93;11.43;;;26.00;99.90;;;;;;5094822;28;20233;-72
2023/08/17 01:01:34;;;;;;;15.05;12.68;;;26.00;99.90;;;;;;5061152;28;20233;-72
2023/08/17 01:04:23;;;;;;;14.85;11.93;;;26.00;99.90;;;;;;5083446;28;20227;-72
2023/08/17 01:07:12;;;;;;;12.95;11.75;;;26.00;99.90;;;;;;5064534;28;20220;-72
2023/08/17 01:10:03;;;;;;;19.40;12.45;;;25.90;99.90;;;;;;5080571;28;20594;-72
2023/08/17 01:12:59;;;;;;;14.88;12.27;;;25.90;99.90;;;;;;5076774;28;20333;-72
2023/08/17 01:15:52;;;;;;;13.00;11.70;;;26.00;99.90;;;;;;5068622;28;20216;-71
2023/08/17 01:18:46;;;;;;;14.40;11.85;;;25.90;99.90;;;;;;5081422;28;20421;-72
2023/08/17 01:21:41;;;;;;;13.65;12.13;;;25.90;99.90;;;;;;5078115;28;20931;-71
2023/08/17 01:24:32;;;;;;;14.23;12.65;;;25.90;99.90;;;;;;5056604;28;20237;-72
2023/08/17 01:27:21;;;;;;;13.70;12.05;;;25.90;99.90;;;;;;5068490;28;20231;-72
2023/08/17 01:30:12;;;;;;;15.02;12.40;;;25.90;99.90;;;;;;5094018;28;20298;-72
2023/08/17 01:33:07;;;;;;;14.48;12.55;;;25.90;99.90;;;;;;5074589;28;20219;-71
2023/08/17 01:36:06;;;;;;;19.10;13.25;;;25.90;99.90;;;;;;5069032;28;20250;-72
2023/08/17 01:38:58;;;;;;;15.63;12.15;;;25.90;99.90;;;;;;5063865;28;20228;-72
2023/08/17 01:41:48;;;;;;;15.07;11.90;;;25.80;99.90;;;;;;5080059;28;20357;-72
2023/08/17 01:44:38;;;;;;;13.57;12.18;;;25.90;99.90;;;;;;5069027;28;20220;-71
2023/08/17 01:47:27;;;;;;;15.93;12.40;;;25.90;99.90;;;;;;5072372;28;21259;-71
2023/08/17 01:50:17;;;;;;;13.48;12.07;;;25.90;99.90;;;;;;5068909;28;20231;-72
2023/08/17 01:53:05;;;;;;;16.55;13.05;;;25.80;99.90;;;;;;5062478;28;20253;-71
2023/08/17 01:55:55;;;;;;;14.63;12.52;;;25.80;99.90;;;;;;5086742;28;20235;-72
2023/08/17 01:58:46;;;;;;;16.05;12.18;;;25.80;99.90;;;;;;5061476;28;20215;-72
2023/08/17 02:01:35;;;;;;;16.08;12.73;;;25.80;99.90;;;;;;5069982;28;20567;-72
2023/08/17 02:04:26;;;;;;;15.65;12.45;;;25.80;99.90;;;;;;5070522;28;20265;-72
2023/08/17 02:07:14;;;;;;;13.70;11.73;;;25.80;99.90;;;;;;5082129;28;20211;-72
2023/08/17 02:10:04;;;;;;;16.02;12.38;;;25.70;99.90;;;;;;5065195;28;20319;-72
2023/08/17 02:12:55;;;;;;;15.63;13.35;;;25.70;99.90;;;;;;5066084;28;20223;-72
2023/08/17 02:15:57;;;;;;;13.70;11.98;;;25.60;99.90;;;;;;5089789;28;20550;-72
2023/08/17 02:18:46;;;;;;;17.08;13.13;;;25.70;99.90;;;;;;5087233;28;20308;-72
2023/08/17 02:21:35;;;;;;;16.23;12.45;;;25.70;99.90;;;;;;5075818;28;20234;-72
2023/08/17 02:24:24;;;;;;;13.18;11.57;;;25.70;99.90;;;;;;5068292;28;20227;-71
2023/08/17 02:27:14;;;;;;;13.38;11.82;;;25.60;99.90;;;;;;5073175;28;20219;-72
2023/08/17 02:30:03;;;;;;;14.20;12.57;;;25.60;99.90;;;;;;5072679;28;20222;-71
2023/08/17 02:32:54;;;;;;;15.02;11.77;;;25.60;99.90;;;;;;5080745;28;20226;-72
2023/08/17 02:35:43;;;;;;;14.65;12.32;;;25.70;99.90;;;;;;5083456;28;20219;-71
2023/08/17 02:38:32;;;;;;;16.58;12.77;;;25.60;99.90;;;;;;5076611;28;20232;-73
2023/08/17 02:41:21;;;;;;;17.95;12.95;;;25.60;99.90;;;;;;5087960;28;20224;-72
2023/08/17 02:44:10;;;;;;;17.48;12.50;;;25.60;99.90;;;;;;5086528;28;20208;-72
2023/08/17 02:46:59;;;;;;;13.50;12.10;;;25.50;99.90;;;;;;5077598;28;20220;-71
2023/08/17 02:49:50;;;;;;;14.32;12.02;;;25.50;99.90;;;;;;5076247;28;20364;-71
2023/08/17 02:52:39;;;;;;;14.88;12.13;;;25.40;99.90;;;;;;5072301;28;20892;-72
2023/08/17 02:55:28;;;;;;;16.63;13.07;;;25.40;99.90;;;;;;5068123;28;20246;-72
2023/08/17 02:58:17;;;;;;;16.63;12.57;;;25.50;99.90;;;;;;5078596;28;20227;-72
2023/08/17 03:01:06;;;;;;;14.90;12.13;;;25.40;99.90;;;;;;5083123;28;20230;-71
2023/08/17 03:03:55;;;;;;;14.13;12.20;;;25.50;99.90;;;;;;5080575;28;20576;-73
2023/08/17 03:06:45;;;;;;;16.98;13.73;;;25.30;99.90;;;;;;5063477;28;20219;-72
2023/08/17 03:09:34;;;;;;;14.70;13.18;;;25.20;99.90;;;;;;5093677;27;20368;-72
2023/08/17 03:12:23;;;;;;;16.25;13.00;;;25.30;99.90;;;;;;5071047;28;20230;-72
2023/08/17 03:15:12;;;;;;;14.60;13.18;;;25.30;99.90;;;;;;5064702;28;20257;-72
2023/08/17 03:18:01;;;;;;;16.25;13.40;;;25.20;99.90;;;;;;5058379;28;20784;-71
2023/08/17 03:20:50;;;;;;;17.17;13.05;;;25.00;99.90;;;;;;5059495;28;20224;-72
2023/08/17 03:23:41;;;;;;;16.67;13.05;;;25.10;99.90;;;;;;5061733;28;20281;-72
2023/08/17 03:26:30;;;;;;;18.90;13.25;;;25.20;99.90;;;;;;5061340;28;20303;-71
2023/08/17 03:29:19;;;;;;;20.85;13.07;;;25.20;99.90;;;;;;5065762;28;20247;-72
2023/08/17 03:32:08;;;;;;;17.00;13.10;;;25.10;99.90;;;;;;5046193;28;20327;-72
2023/08/17 03:34:57;;;;;;;19.92;14.27;;;25.10;99.90;;;;;;5040537;28;20235;-71
2023/08/17 03:37:46;;;;;;;17.92;12.80;;;25.10;99.90;;;;;;5073844;28;20722;-72
2023/08/17 03:40:37;;;;;;;16.00;13.57;;;25.10;99.90;;;;;;5046579;28;20224;-72
2023/08/17 03:43:26;;;;;;;20.02;13.43;;;25.00;99.90;;;;;;5049084;28;20236;-71
2023/08/17 03:46:15;;;;;;;15.73;13.43;;;25.00;99.90;;;;;;5046326;28;20235;-72
2023/08/17 03:49:04;;;;;;;18.88;13.75;;;25.00;99.90;;;;;;5047216;28;20255;-72
2023/08/17 03:51:53;;;;;;;15.50;13.35;;;25.10;99.90;;;;;;5063487;28;20243;-72
2023/08/17 03:54:42;;;;;;;16.15;12.82;;;25.10;99.90;;;;;;5063607;28;20714;-71
2023/08/17 03:57:33;;;;;;;16.75;13.50;;;25.10;99.90;;;;;;5043018;28;20228;-71
2023/08/17 04:00:24;;;;;;;14.10;12.60;;;25.00;99.90;;;;;;5044712;28;20228;-72
2023/08/17 04:03:18;;;;;;;19.58;13.07;;;25.10;99.90;;;;;;5068111;28;20227;-72
2023/08/17 04:06:09;;;;;;;17.50;13.60;;;25.00;99.90;;;;;;5040175;28;20211;-72
2023/08/17 04:08:58;;;;;;;21.17;13.73;;;25.00;99.90;;;;;;5056097;28;20242;-72
2023/08/17 04:11:47;;;;;;;16.60;13.70;;;24.90;99.90;;;;;;5042107;28;20298;-71
2023/08/17 04:14:39;;;;;;;17.50;13.50;;;24.90;99.90;;;;;;5048606;28;20948;-72
2023/08/17 04:17:28;;;;;;;14.82;13.20;;;24.90;99.90;;;;;;5076621;28;20275;-71
2023/08/17 04:20:19;;;;;;;14.98;12.57;;;25.00;99.90;;;;;;5076989;28;20220;-72
2023/08/17 04:23:08;;;;;;;14.95;12.75;;;25.00;99.90;;;;;;5065428;28;20243;-72
2023/08/17 04:25:56;;;;;;;16.40;13.20;;;24.90;99.90;;;;;;5074635;28;20231;-71
2023/08/17 04:28:45;;;;;;;15.07;13.55;;;24.90;99.90;;;;;;5068623;28;20235;-72
2023/08/17 04:31:37;;;;;;;18.92;13.55;;;25.00;99.90;;;;;;5070191;28;20261;-71
2023/08/17 04:34:26;;;;;;;15.80;12.80;;;24.90;99.90;;;;;;5064821;28;20706;-71
2023/08/17 04:37:15;;;;;;;15.70;12.27;;;25.00;99.90;;;;;;5069235;28;20576;-71
2023/08/17 04:40:05;;;;;;;15.93;12.13;;;24.90;99.90;;;;;;5070648;28;20224;-71
2023/08/17 04:42:55;;;;;;;14.10;11.90;;;25.00;99.90;;;;;;5068760;28;20781;-71
2023/08/17 04:45:47;;;;;;;15.68;11.77;;;24.90;99.90;;;;;;5071485;28;20409;-72
2023/08/17 04:48:39;;;;;;;13.75;12.23;;;24.90;99.90;;;;;;5067827;28;20228;-72
2023/08/17 04:51:28;;;;;;;22.63;12.93;;;25.00;99.90;;;;;;5066738;28;20231;-72
2023/08/17 04:54:18;;;;;;;14.35;12.27;;;25.00;99.90;;;;;;5077460;28;20300;-72
2023/08/17 04:57:07;;;;;;;14.90;12.50;;;25.00;99.90;;;;;;5069341;28;20222;-73
2023/08/17 04:59:56;;;;;;;14.45;11.90;;;25.00;99.90;;;;;;5066582;28;20306;-72
2023/08/17 05:02:45;;;;;;;18.70;11.50;;;25.10;99.90;;;;;;5065553;28;20223;-72
2023/08/17 05:05:37;;;;;;;16.05;11.63;;;25.10;99.90;;;;;;5068546;28;20234;-72
2023/08/17 05:08:29;;;;;;;55.38;13.70;;;25.10;99.90;;;;;;5065582;28;20353;-72
2023/08/17 05:11:18;;;;;;;15.05;10.82;;;25.10;99.90;;;;;;5076027;28;20598;-73
2023/08/17 05:14:08;;;;;;;15.20;10.75;;;25.00;99.90;;;;;;5061676;28;20227;-71
2023/08/17 05:16:57;;;;;;;12.80;11.50;;;25.10;99.90;;;;;;5056339;28;20239;-72
2023/08/17 05:19:46;;;;;;;13.57;10.35;;;25.10;99.90;;;;;;5053246;28;20220;-71
2023/08/17 05:22:37;;;;;;;11.65;10.45;;;25.00;99.90;;;;;;5057913;28;20224;-72
2023/08/17 05:25:26;;;;;;;16.45;11.15;;;25.00;99.90;;;;;;5055227;28;20225;-73
2023/08/17 05:28:15;;;;;;;13.45;10.77;;;25.00;99.90;;;;;;5077073;28;20266;-71
2023/08/17 05:31:07;;;;;;;12.35;11.05;;;25.00;99.90;;;;;;5066041;28;20254;-72
2023/08/17 05:34:00;;;;;;;14.73;11.00;;;25.10;99.90;;;;;;5051284;28;20241;-72
2023/08/17 05:36:48;;;;;;;11.85;10.50;;;25.10;99.90;;;;;;5063894;28;20715;-72
2023/08/17 05:39:39;;;;;;;13.43;10.63;;;25.10;99.90;;;;;;5066058;28;20239;-73
2023/08/17 05:42:28;;;;;;;12.20;10.15;;;25.20;99.90;;;;;;5061147;28;20220;-72
2023/08/17 05:45:17;;;;;;;15.85;9.90;;;25.20;99.90;;;;;;5050396;28;20588;-73
2023/08/17 05:48:06;;;;;;;12.13;9.73;;;25.30;99.90;;;;;;5073779;28;20223;-72
2023/08/17 05:50:57;;;;;;;11.10;9.77;;;25.30;99.90;;;;;;5042675;28;20227;-72
2023/08/17 05:53:45;;;;;;;17.08;9.98;;;25.40;99.90;;;;;;5051605;28;20223;-72
2023/08/17 05:56:36;;;;;;;13.32;9.95;;;25.40;99.90;;;;;;5065979;28;20569;-72
2023/08/17 05:59:25;;;;;;;13.70;8.82;;;25.50;99.90;;;;;;5074877;28;20517;-72
2023/08/17 06:02:13;;;;;;;11.57;8.73;;;25.50;99.90;;;;;;5060948;28;20234;-72
2023/08/17 06:05:03;;;;;;;15.05;8.80;;;25.60;99.90;;;;;;5057089;28;20284;-71
2023/08/17 06:07:52;;;;;;;11.70;9.25;;;25.60;99.90;;;;;;5050930;28;20726;-72
2023/08/17 06:10:43;;;;;;;16.45;9.52;;;25.60;99.90;;;;;;5066801;28;20221;-71
2023/08/17 06:13:35;;;;;;;11.57;9.27;;;25.70;99.90;;;;;;5069085;28;20311;-72
2023/08/17 06:16:24;;;;;;;9.93;8.93;;;25.70;99.90;;;;;;5049521;28;20258;-72
2023/08/17 06:19:13;;;;;;;14.73;9.40;;;25.80;99.90;;;;;;5058208;28;20254;-71
2023/08/17 06:22:02;;;;;;;11.48;9.57;;;26.00;99.90;;;;;;5083134;28;20215;-72
2023/08/17 06:24:51;;;;;;;13.20;8.75;;;26.00;99.90;;;;;;5085109;28;20767;-72
2023/08/17 06:27:43;;;;;;;13.20;8.93;;;26.10;99.90;;;;;;5083044;28;20239;-71
2023/08/17 06:30:33;;;;;;;14.93;9.13;;;26.20;99.90;;;;;;5070616;28;20218;-71
2023/08/17 06:33:23;;;;;;;12.63;9.65;;;26.20;99.90;;;;;;5064279;28;20231;-72
2023/08/17 06:36:16;;;;;;;14.18;9.95;;;26.20;99.90;;;;;;5079124;28;20234;-73
2023/08/17 06:39:05;;;;;;;11.50;9.45;;;26.20;99.90;;;;;;5074350;28;20215;-72
2023/08/17 06:41:55;;;;;;;14.30;9.85;;;26.20;99.90;;;;;;5075505;28;20238;-71
2023/08/17 06:44:44;;;;;;;15.52;9.98;;;26.30;99.90;;;;;;5094084;28;20243;-71
2023/08/17 06:47:34;;;;;;;13.57;9.68;;;26.30;99.90;;;;;;5083697;28;20227;-71
2023/08/17 06:50:23;;;;;;;12.60;9.50;;;26.40;99.90;;;;;;5066519;28;20224;-71
2023/08/17 06:53:13;;;;;;;15.40;10.02;;;26.50;99.90;;;;;;5100387;28;20223;-72
2023/08/17 06:56:02;;;;;;;16.20;9.77;;;26.70;99.90;;;;;;5076658;28;20633;-71
2023/08/17 06:58:51;;;;;;;12.38;10.02;;;26.80;99.90;;;;;;5075295;28;20281;-72
2023/08/17 07:01:43;;;;;;;11.50;9.70;;;26.80;99.90;;;;;;5085908;28;20303;-71
2023/08/17 07:04:34;;;;;;;10.50;9.50;;;26.80;99.90;;;;;;5070350;28;20329;-71
2023/08/17 07:07:23;;;;;;;14.05;9.10;;;26.80;99.90;;;;;;5063633;28;20725;-72
2023/08/17 07:10:12;;;;;;;12.50;9.30;;;26.90;99.90;;;;;;5084540;28;20220;-71
2023/08/17 07:13:03;;;;;;;13.93;9.68;;;26.90;99.90;;;;;;5077020;28;20228;-71
2023/08/17 07:15:52;;;;;;;13.75;9.57;;;27.00;99.90;;;;;;5061743;28;20219;-72
2023/08/17 07:18:42;;;;;;;14.00;9.63;;;27.20;99.90;;;;;;5083740;28;20356;-72
2023/08/17 07:21:32;;;;;;;12.15;9.70;;;27.20;99.90;;;;;;5085535;28;20580;-72
2023/08/17 07:24:21;;;;;;;16.45;9.70;;;27.40;99.90;;;;;;5085661;28;20670;-72
2023/08/17 07:27:10;;;;;;;12.25;9.75;;;27.30;99.90;;;;;;5081701;28;20348;-72
2023/08/17 07:30:00;;;;;;;11.70;10.50;;;27.30;99.90;;;;;;5072533;28;20211;-72
2023/08/17 07:32:48;;;;;;;11.70;9.48;;;27.20;99.90;;;;;;5086925;28;20219;-73
2023/08/17 07:35:37;;;;;;;15.77;10.20;;;27.10;99.90;;;;;;5080579;28;20743;-72
2023/08/17 07:38:28;;;;;;;16.40;10.05;;;27.10;99.90;;;;;;5078944;28;20808;-72
2023/08/17 07:41:17;;;;;;;10.95;9.68;;;27.10;99.90;;;;;;5068398;28;20212;-72
2023/08/17 07:44:08;;;;;;;13.15;9.57;;;27.20;99.90;;;;;;5086897;28;20686;-72
2023/08/17 07:46:58;;;;;;;10.52;8.82;;;27.10;99.90;;;;;;5078100;28;20271;-73
2023/08/17 07:49:48;;;;;;;13.45;9.40;;;27.20;99.90;;;;;;5086909;28;20219;-72
2023/08/17 07:52:37;;;;;;;13.32;9.15;;;27.20;99.90;;;;;;5077320;28;20310;-72
2023/08/17 07:55:29;;;;;;;11.43;8.93;;;27.30;99.90;;;;;;5077616;28;20227;-72
2023/08/17 07:58:17;;;;;;;15.20;9.73;;;27.40;99.90;;;;;;5085784;28;20224;-72
2023/08/17 08:01:06;;;;;;;15.32;9.85;;;27.40;99.90;;;;;;5078575;28;20271;-72
2023/08/17 08:03:56;;;;;;;17.08;10.18;;;27.40;99.90;;;;;;5069979;28;20207;-73
2023/08/17 08:06:45;;;;;;;16.27;9.73;;;27.50;99.90;;;;;;5063938;28;20231;-72
2023/08/17 08:09:34;;;;;;;15.88;10.10;;;27.50;99.90;;;;;;5067190;28;20238;-72
2023/08/17 08:12:24;;;;;;;15.63;10.48;;;27.60;99.90;;;;;;5089265;28;20309;-72
2023/08/17 08:15:14;;;;;;;11.77;9.40;;;27.80;99.90;;;;;;5066852;28;20332;-72
2023/08/17 08:18:04;;;;;;;16.35;10.32;;;28.10;99.90;;;;;;5075452;28;21062;-72
2023/08/17 08:20:53;;;;;;;13.20;10.70;;;28.40;99.90;;;;;;5075889;28;20238;-73
2023/08/17 08:23:43;;;;;;;12.55;10.40;;;28.60;99.90;;;;;;5076234;28;21094;-71
2023/08/17 08:26:32;;;;;;;12.32;10.20;;;29.20;99.90;;;;;;5076924;28;20258;-72
2023/08/17 08:29:22;;;;;;;12.13;9.85;;;29.70;99.90;;;;;;5066212;28;20717;-72
2023/08/17 08:32:12;;;;;;;11.00;9.75;;;30.30;99.90;;;;;;5073553;28;20306;-72
2023/08/17 08:35:01;;;;;;;13.13;9.80;;;30.90;99.90;;;;;;5070858;28;20272;-72
2023/08/17 08:37:50;;;;;;;14.07;10.43;;;30.90;99.90;;;;;;5062779;28;20216;-71
2023/08/17 08:40:42;;;;;;;11.52;9.57;;;30.70;99.90;;;;;;5078346;28;20237;-73
2023/08/17 08:43:31;;;;;;;11.70;9.95;;;30.50;99.90;;;;;;5066201;28;20230;-71
2023/08/17 08:46:24;;;;;;;10.35;9.32;;;30.70;99.90;;;;;;5095609;27;20223;-72
2023/08/17 08:49:17;;;;;;;12.35;8.55;;;31.30;99.90;;;;;;5081292;28;20210;-72
2023/08/17 08:52:09;;;;;;;12.45;8.55;;;31.70;99.90;;;;;;5075065;28;20223;-72
2023/08/17 08:54:59;;;;;;;12.55;9.15;;;32.00;99.90;;;;;;5065893;28;20227;-71
2023/08/17 08:57:50;;;;;;;11.48;9.10;;;32.10;99.90;;;;;;5067410;28;20219;-71
2023/08/17 09:00:41;;;;;;;15.30;9.02;;;32.20;99.90;;;;;;5072781;28;20229;-71
2023/08/17 09:03:33;;;;;;;12.85;9.15;;;32.20;99.90;;;;;;5078661;28;20237;-72
2023/08/17 09:06:24;;;;;;;12.00;9.38;;;32.10;99.90;;;;;;5092596;28;20229;-71
2023/08/17 09:09:15;;;;;;;12.70;9.35;;;32.10;99.90;;;;;;5082688;28;20253;-71
2023/08/17 09:12:07;;;;;;;9.65;8.75;;;31.70;99.90;;;;;;5077707;28;20363;-72
2023/08/17 09:14:56;;;;;;;10.75;9.65;;;31.40;99.90;;;;;;5072788;28;20305;-70
2023/08/17 09:17:45;;;;;;;16.65;9.88;;;31.70;99.90;;;;;;5069236;28;20323;-71
2023/08/17 09:20:42;;;;;;;11.35;9.35;;;32.00;99.90;;;;;;5066884;28;20273;-72
2023/08/17 09:23:34;;;;;;;11.50;9.13;;;32.80;99.90;;;;;;5089529;28;20720;-72
2023/08/17 09:26:25;;;;;;;10.88;9.10;;;33.30;99.90;;;;;;5073259;28;20223;-72
2023/08/17 09:29:18;;;;;;;11.88;9.30;;;33.80;99.90;;;;;;5073374;28;20399;-70
2023/08/17 09:32:10;;;;;;;14.40;9.00;;;33.90;99.90;;;;;;5066850;28;20231;-72
2023/08/17 09:35:01;;;;;;;15.48;9.05;;;34.30;99.90;;;;;;5068723;28;20229;-71
2023/08/17 09:37:51;;;;;;;11.82;9.00;;;34.20;99.90;;;;;;5087250;28;20287;-71
2023/08/17 09:40:44;;;;;;;12.88;8.95;;;34.60;99.90;;;;;;5086094;28;20230;-73
2023/08/17 09:43:33;;;;;;;9.38;8.35;;;35.00;98.50;;;;;;5079586;28;20215;-71
2023/08/17 09:46:23;;;;;;;12.73;8.00;;;36.10;98.40;;;;;;5076845;28;20278;-70
2023/08/17 09:49:12;;;;;;;11.77;8.55;;;36.90;96.60;;;;;;5059818;28;20238;-71
2023/08/17 09:52:02;;;;;;;8.23;7.47;;;37.70;97.30;;;;;;5062178;28;20239;-72
2023/08/17 09:54:55;;;;;;;11.63;7.97;;;38.20;93.50;;;;;;5065602;28;20223;-72
2023/08/17 09:57:44;;;;;;;9.15;8.20;;;38.90;90.50;;;;;;5073025;28;21409;-71
2023/08/17 10:00:35;;;;;;;10.10;7.03;;;38.90;90.30;;;;;;5063179;28;20650;-72
2023/08/17 10:03:25;;;;;;;9.18;7.47;;;38.10;90.20;;;;;;5076276;28;20237;-72
2023/08/17 10:06:17;;;;;;;9.27;7.10;;;39.20;89.20;;;;;;5078069;28;20242;-72
2023/08/17 10:09:07;;;;;;;8.50;7.63;;;39.10;89.30;;;;;;5072798;28;20268;-72
2023/08/17 10:11:59;;;;;;;9.00;7.60;;;39.10;87.40;;;;;;5078446;28;20212;-72
2023/08/17 10:14:56;;;;;;;8.23;7.43;;;39.80;88.20;;;;;;5081210;28;20761;-72
2023/08/17 10:17:52;;;;;;;10.48;6.95;;;39.00;87.30;;;;;;5081728;28;20284;-72
2023/08/17 10:20:50;;;;;;;11.68;7.07;;;40.50;85.50;;;;;;5076677;28;20230;-71
2023/08/17 10:23:40;;;;;;;8.90;7.10;;;41.50;80.90;;;;;;5085935;28;20783;-71
2023/08/17 10:26:31;;;;;;;7.70;6.50;;;41.40;74.50;;;;;;5081239;28;20219;-72
2023/08/17 10:29:23;;;;;;;8.15;6.70;;;41.40;76.30;;;;;;5079266;28;20963;-71
2023/08/17 10:32:13;;;;;;;8.32;5.60;;;42.50;78.60;;;;;;5079887;28;20219;-71
2023/08/17 10:35:07;;;;;;;6.50;5.90;;;43.00;69.60;;;;;;5085657;28;20590;-71
2023/08/17 10:37:56;;;;;;;9.10;6.43;;;42.70;67.80;;;;;;5080795;28;20227;-70
2023/08/17 10:40:45;;;;;;;7.25;5.70;;;43.40;69.10;;;;;;5079634;28;20227;-72
2023/08/17 10:43:34;;;;;;;9.15;5.95;;;44.30;70.90;;;;;;5080889;28;20245;-70
2023/08/17 10:46:33;;;;;;;9.73;5.18;;;44.80;68.70;;;;;;5067263;28;20562;-72
2023/08/17 10:49:27;;;;;;;5.45;4.25;;;45.20;63.90;;;;;;5086143;28;20287;-73
2023/08/17 10:52:30;;;;;;;7.40;4.70;;;45.50;60.40;;;;;;5068958;28;20219;-72
2023/08/17 10:55:37;;;;;;;6.35;5.35;;;45.30;61.10;;;;;;5069847;28;20245;-71
2023/08/17 10:58:26;;;;;;;9.40;4.68;;;45.50;58.50;;;;;;5084251;28;20263;-72
2023/08/17 11:01:20;;;;;;;8.95;4.82;;;45.90;59.40;;;;;;5086643;28;20215;-71
2023/08/17 11:04:12;;;;;;;4.40;3.95;;;46.20;59.00;;;;;;5072638;28;20226;-70
2023/08/17 11:07:03;;;;;;;9.05;6.13;;;46.30;55.90;;;;;;5088057;28;20249;-72
2023/08/17 11:09:55;;;;;;;5.28;4.22;;;46.50;58.50;;;;;;5096245;28;20220;-71
2023/08/17 11:12:45;;;;;;;5.70;4.63;;;46.10;58.20;;;;;;5062176;28;20230;-72
2023/08/17 11:15:38;;;;;;;7.72;3.47;;;46.90;57.00;;;;;;5079365;28;20287;-72
2023/08/17 11:18:28;;;;;;;6.95;3.15;;;46.10;50.00;;;;;;5077210;28;20775;-73
2023/08/17 11:21:19;;;;;;;5.05;3.40;;;46.40;53.60;;;;;;5083769;28;20593;-71
2023/08/17 11:24:10;;;;;;;6.50;3.30;;;46.40;51.80;;;;;;5081072;28;20237;-71
2023/08/17 11:26:59;;;;;;;6.93;6.22;;;47.30;49.00;;;;;;5076782;28;20247;-71
2023/08/17 11:29:49;;;;;;;5.72;3.35;;;47.90;50.60;;;;;;5079953;28;20299;-70
2023/08/17 11:32:39;;;;;;;5.88;3.42;;;48.50;49.10;;;;;;5078317;28;20236;-71
2023/08/17 11:35:28;;;;;;;3.67;3.20;;;48.60;47.90;;;;;;5067694;28;20244;-72
2023/08/17 11:38:19;;;;;;;42.90;29.08;;;48.40;50.10;;;;;;5069325;28;20211;-72
2023/08/17 11:41:10;;;;;;;10.77;5.30;;;49.30;49.80;;;;;;5080660;28;20516;-73
2023/08/17 11:44:10;;;;;;;4.53;3.78;;;49.70;46.60;;;;;;5072818;28;20215;-72
2023/08/17 11:47:00;;;;;;;3.45;3.08;;;50.20;48.00;;;;;;5060075;28;20228;-72
2023/08/17 11:49:50;;;;;;;6.82;3.45;;;51.00;46.50;;;;;;5084728;28;20688;-73
2023/08/17 11:52:42;;;;;;;6.97;3.17;;;51.20;45.30;;;;;;5079656;28;20250;-72
2023/08/17 11:55:36;;;;;;;5.30;2.92;;;50.80;43.80;;;;;;5059290;28;20717;-71
2023/08/17 11:58:38;;;;;;;4.05;2.90;;;49.20;45.10;;;;;;5075333;28;20215;-72
2023/08/17 12:01:27;;;;;;;6.78;2.85;;;50.40;45.20;;;;;;5070728;28;20231;-71
2023/08/17 12:04:17;;;;;;;5.82;2.92;;;51.70;45.60;;;;;;5065739;28;20219;-72
2023/08/17 12:07:07;;;;;;;3.47;2.83;;;50.20;43.80;;;;;;5068706;28;20241;-72
2023/08/17 12:09:56;;;;;;;3.60;2.85;;;46.70;47.30;;;;;;5066570;28;20750;-72
2023/08/17 12:12:48;;;;;;;4.65;2.70;;;44.60;46.30;;;;;;5064333;28;20693;-71
2023/08/17 12:15:40;;;;;;;3.08;2.78;;;43.60;48.20;;;;;;5075904;28;20305;-72
2023/08/17 12:18:35;;;;;;;4.57;3.05;;;44.70;48.00;;;;;;5082760;28;20595;-72
2023/08/17 12:21:30;;;;;;;6.90;3.05;;;44.10;49.30;;;;;;5070623;28;20215;-71
2023/08/17 12:24:20;;;;;;;5.07;3.13;;;44.50;49.00;;;;;;5063120;28;20230;-71
2023/08/17 12:27:10;;;;;;;3.80;3.20;;;41.40;50.80;;;;;;5096008;27;20226;-71
2023/08/17 12:30:01;;;;;;;4.28;2.80;;;40.00;53.00;;;;;;5082980;28;20218;-71
2023/08/17 12:32:52;;;;;;;7.80;3.40;;;38.60;54.00;;;;;;5072469;28;20219;-72
2023/08/17 12:35:46;;;;;;;5.38;3.10;;;37.80;57.00;;;;;;5082726;28;20297;-72
2023/08/17 12:38:37;;;;;;;5.43;3.80;;;37.30;56.20;;;;;;5076145;28;20269;-72
2023/08/17 12:41:27;;;;;;;6.53;3.42;;;37.10;58.70;;;;;;5080653;28;20218;-72
2023/08/17 12:44:16;;;;;;;4.10;3.67;;;37.00;59.10;;;;;;5074653;28;20242;-73
2023/08/17 12:47:07;;;;;;;4.30;3.65;;;36.60;62.70;;;;;;5078112;28;20227;-72
2023/08/17 12:49:56;;;;;;;3.88;3.30;;;36.10;60.00;;;;;;5097699;27;20219;-72
2023/08/17 12:52:45;;;;;;;5.70;3.33;;;35.90;60.70;;;;;;5056062;28;20227;-73
2023/08/17 12:55:36;;;;;;;10.95;3.70;;;35.70;61.40;;;;;;5057049;28;20235;-73
2023/08/17 12:58:25;;;;;;;3.78;3.40;;;35.70;60.20;;;;;;5069698;28;20219;-73
2023/08/17 13:01:14;;;;;;;7.65;6.22;;;35.50;60.60;;;;;;5075458;28;20294;-72
2023/08/17 13:04:05;;;;;;;5.05;3.63;;;35.40;62.50;;;;;;5085395;28;20303;-73
2023/08/17 13:06:55;;;;;;;5.72;3.60;;;35.30;60.70;;;;;;5083205;28;20637;-72
2023/08/17 13:09:46;;;;;;;6.72;3.70;;;34.80;60.90;;;;;;5074850;28;20215;-73
2023/08/17 13:12:35;;;;;;;6.47;3.55;;;35.00;61.60;;;;;;5080695;28;20219;-72
2023/08/17 13:15:24;;;;;;;7.18;3.95;;;34.70;61.50;;;;;;5071425;28;20230;-72
2023/08/17 13:18:13;;;;;;;6.80;3.75;;;34.60;63.10;;;;;;5069719;28;20307;-73
2023/08/17 13:21:03;;;;;;;5.97;3.70;;;34.30;62.00;;;;;;5073361;28;20327;-72
2023/08/17 13:23:53;;;;;;;5.57;3.45;;;34.20;63.50;;;;;;5082629;28;20658;-73
2023/08/17 13:26:43;;;;;;;4.25;3.80;;;34.20;63.00;;;;;;5081725;28;20353;-72
2023/08/17 13:29:35;;;;;;;4.53;3.95;;;34.20;65.60;;;;;;5076693;28;20356;-73
2023/08/17 13:32:24;;;;;;;6.53;4.35;;;34.30;64.10;;;;;;5078359;28;20219;-72
2023/08/17 13:35:14;;;;;;;5.60;4.13;;;34.30;65.10;;;;;;5084896;28;20220;-71
2023/08/17 13:38:05;;;;;;;6.30;4.75;;;34.30;65.30;;;;;;5073167;28;20772;-73
2023/08/17 13:40:55;;;;;;;5.60;4.22;;;34.40;66.20;;;;;;5104395;28;20313;-72
2023/08/17 13:43:44;;;;;;;5.38;4.13;;;34.20;64.50;;;;;;5093868;28;20206;-71
2023/08/17 13:46:33;;;;;;;8.32;4.22;;;34.00;65.60;;;;;;5080279;28;20216;-70
2023/08/17 13:49:22;;;;;;;4.85;3.72;;;34.00;65.40;;;;;;5097734;28;20275;-70
2023/08/17 13:52:11;;;;;;;4.38;3.90;;;33.90;65.50;;;;;;5080147;28;20231;-72
2023/08/17 13:55:01;;;;;;;4.05;3.65;;;33.90;65.50;;;;;;5085949;28;20265;-72
2023/08/17 13:57:52;;;;;;;5.32;3.70;;;33.80;65.00;;;;;;5086645;28;20256;-72
2023/08/17 14:00:41;;;;;;;6.38;4.38;;;33.60;68.40;;;;;;5077763;28;20222;-72
2023/08/17 14:03:30;;;;;;;6.57;4.30;;;33.70;67.10;;;;;;5083343;28;20230;-73
2023/08/17 14:06:22;;;;;;;7.47;4.10;;;33.60;67.20;;;;;;5073064;28;20257;-72
2023/08/17 14:09:11;;;;;;;5.63;3.63;;;33.50;67.70;;;;;;5064216;28;20219;-73
2023/08/17 14:12:02;;;;;;;6.55;4.38;;;33.40;66.60;;;;;;5088156;28;20237;-72
2023/08/17 14:14:51;;;;;;;5.97;4.30;;;33.40;67.00;;;;;;5067457;28;20763;-71
2023/08/17 14:17:40;;;;;;;5.13;4.20;;;33.40;67.30;;;;;;5085852;28;20230;-72
2023/08/17 14:20:29;;;;;;;5.72;4.05;;;33.20;67.10;;;;;;5068963;28;20222;-72
2023/08/17 14:23:18;;;;;;;5.30;4.43;;;33.10;67.90;;;;;;5072943;28;20364;-72
2023/08/17 14:26:08;;;;;;;7.97;4.40;;;33.00;71.70;;;;;;5067847;28;20227;-73
2023/08/17 14:28:58;;;;;;;6.70;4.40;;;33.10;68.40;;;;;;5061321;28;20223;-72
2023/08/17 14:31:47;;;;;;;6.10;4.25;;;33.10;67.60;;;;;;5078902;28;20352;-72
2023/08/17 14:34:36;;;;;;;4.45;4.05;;;33.00;67.90;;;;;;5068213;28;20288;-72